createdAt,value
2022-09-24T00:01:44.379Z,5.92
2022-09-24T00:04:31.654Z,5.25
2022-09-24T00:07:18.790Z,6.45
2022-09-24T00:10:06.627Z,5.12
2022-09-24T00:12:54.213Z,5.67
2022-09-24T00:15:44.277Z,9.03
2022-09-24T00:18:31.912Z,5.05
2022-09-24T00:21:24.811Z,8.78
2022-09-24T00:24:16.775Z,7.70
2022-09-24T00:27:06.264Z,3.92
2022-09-24T00:29:53.482Z,9.00
2022-09-24T00:32:40.731Z,5.55
2022-09-24T00:35:28.130Z,4.53
2022-09-24T00:38:16.664Z,3.95
2022-09-24T00:41:04.488Z,6.25
2022-09-24T00:43:52.893Z,4.90
2022-09-24T00:46:44.286Z,7.37
2022-09-24T00:49:31.809Z,4.33
2022-09-24T00:52:20.130Z,4.90
2022-09-24T00:55:09.042Z,5.30
2022-09-24T00:58:03.299Z,3.70
2022-09-24T01:00:52.940Z,7.05
2022-09-24T01:03:42.402Z,4.35
2022-09-24T01:06:29.749Z,7.10
2022-09-24T01:09:18.378Z,6.55
2022-09-24T01:12:12.131Z,5.33
2022-09-24T01:15:24.992Z,4.42
2022-09-24T01:18:28.147Z,7.03
2022-09-24T01:21:19.851Z,6.17
2022-09-24T01:24:12.844Z,5.95
2022-09-24T01:27:08.854Z,4.42
2022-09-24T01:30:08.521Z,4.33
2022-09-24T01:32:59.482Z,3.70
2022-09-24T01:35:55.200Z,4.42
2022-09-24T01:38:44.836Z,6.15
2022-09-24T01:41:34.217Z,4.53
2022-09-24T01:44:22.051Z,4.75
2022-09-24T01:47:10.317Z,4.87
2022-09-24T01:49:58.023Z,7.17
2022-09-24T01:52:51.439Z,6.00
2022-09-24T01:55:41.853Z,4.42
2022-09-24T01:58:37.880Z,4.97
2022-09-24T02:01:28.346Z,3.33
2022-09-24T02:04:18.779Z,5.08
2022-09-24T02:07:10.972Z,4.15
2022-09-24T02:09:58.419Z,4.72
2022-09-24T02:12:50.266Z,9.53
2022-09-24T02:15:41.256Z,3.90
2022-09-24T02:18:31.316Z,5.47
2022-09-24T02:21:20.877Z,4.47
2022-09-24T02:24:10.968Z,4.87
2022-09-24T02:26:58.246Z,4.35
2022-09-24T02:29:46.173Z,4.97
2022-09-24T02:32:36.962Z,4.25
2022-09-24T02:35:25.090Z,4.67
2022-09-24T02:38:17.318Z,6.42
2022-09-24T02:41:06.929Z,4.60
2022-09-24T02:43:54.335Z,6.40
2022-09-24T02:46:41.605Z,7.58
2022-09-24T02:49:29.107Z,7.03
2022-09-24T02:52:16.499Z,9.38
2022-09-24T02:55:03.760Z,6.67
2022-09-24T02:57:51.362Z,6.50
2022-09-24T03:00:39.455Z,5.50
2022-09-24T03:03:27.094Z,6.90
2022-09-24T03:06:14.876Z,6.12
2022-09-24T03:09:03.348Z,5.12
2022-09-24T03:11:50.816Z,6.15
2022-09-24T03:14:38.462Z,4.25
2022-09-24T03:17:27.792Z,4.53
2022-09-24T03:20:15.294Z,5.70
2022-09-24T03:23:02.456Z,6.53
2022-09-24T03:25:50.003Z,4.17
2022-09-24T03:28:37.708Z,4.53
2022-09-24T03:31:24.864Z,5.53
2022-09-24T03:34:12.324Z,6.03
2022-09-24T03:36:59.718Z,5.45
2022-09-24T03:39:47.255Z,5.83
2022-09-24T03:42:34.696Z,5.87
2022-09-24T03:45:22.206Z,5.33
2022-09-24T03:48:09.485Z,4.15
2022-09-24T03:50:56.895Z,5.12
2022-09-24T03:53:44.444Z,5.78
2022-09-24T03:56:31.835Z,5.45
2022-09-24T03:59:19.347Z,4.30
2022-09-24T04:02:07.737Z,5.25
2022-09-24T04:04:55.881Z,7.47
2022-09-24T04:07:46.545Z,7.00
2022-09-24T04:10:34.008Z,5.20
2022-09-24T04:13:21.468Z,4.67
2022-09-24T04:16:08.891Z,7.05
2022-09-24T04:18:56.824Z,6.60
2022-09-24T04:21:44.404Z,7.95
2022-09-24T04:24:31.662Z,5.97
2022-09-24T04:27:19.089Z,6.30
2022-09-24T04:30:06.856Z,7.53
2022-09-24T04:32:54.102Z,5.30
2022-09-24T04:35:41.208Z,8.15
2022-09-24T04:38:28.608Z,7.78
2022-09-24T04:41:16.569Z,6.30
2022-09-24T04:44:05.145Z,5.87
2022-09-24T04:46:52.505Z,7.03
2022-09-24T04:49:40.419Z,5.62
2022-09-24T04:52:29.191Z,5.33
2022-09-24T04:55:16.468Z,6.70
2022-09-24T04:58:03.990Z,7.53
2022-09-24T05:00:51.785Z,9.70
2022-09-24T05:03:39.436Z,5.65
2022-09-24T05:06:26.619Z,4.20
2022-09-24T05:09:14.207Z,5.95
2022-09-24T05:12:02.545Z,7.20
2022-09-24T05:14:49.788Z,13.70
2022-09-24T05:17:41.574Z,6.70
2022-09-24T05:20:29.095Z,8.40
2022-09-24T05:23:16.679Z,8.28
2022-09-24T05:26:22.016Z,7.00
2022-09-24T05:29:09.257Z,10.43
2022-09-24T05:31:56.633Z,8.03
2022-09-24T05:34:45.569Z,7.60
2022-09-24T05:37:32.937Z,8.85
2022-09-24T05:40:38.292Z,9.48
2022-09-24T05:43:27.274Z,9.40
2022-09-24T05:46:15.022Z,13.85
2022-09-24T05:49:02.734Z,8.43
2022-09-24T05:51:51.014Z,9.43
2022-09-24T05:54:38.353Z,7.08
2022-09-24T05:57:25.801Z,7.15
2022-09-24T06:00:13.377Z,13.43
2022-09-24T06:03:07.600Z,5.00
2022-09-24T06:05:56.155Z,6.03
2022-09-24T06:08:43.688Z,5.55
2022-09-24T06:11:40.147Z,6.20
2022-09-24T06:14:24.562Z,5.55
2022-09-24T06:17:12.288Z,7.65
2022-09-24T06:20:00.004Z,5.28
2022-09-24T06:22:47.844Z,8.88
2022-09-24T06:25:35.374Z,6.12
2022-09-24T06:28:22.841Z,10.30
2022-09-24T06:31:12.231Z,6.97
2022-09-24T06:34:00.463Z,9.00
2022-09-24T06:36:47.811Z,6.62
2022-09-24T06:39:35.409Z,8.65
2022-09-24T06:42:22.930Z,7.37
2022-09-24T06:45:11.636Z,10.78
2022-09-24T06:48:00.765Z,9.35
2022-09-24T06:50:48.064Z,13.62
2022-09-24T06:53:37.554Z,10.72
2022-09-24T06:56:24.865Z,10.25
2022-09-24T06:59:12.309Z,9.08
2022-09-24T07:02:03.187Z,11.78
2022-09-24T07:04:49.824Z,15.40
2022-09-24T07:07:37.607Z,16.57
2022-09-24T07:10:25.212Z,15.20
2022-09-24T07:13:14.231Z,15.68
2022-09-24T07:16:02.136Z,14.98
2022-09-24T07:18:49.269Z,16.05
2022-09-24T07:21:37.907Z,17.12
2022-09-24T07:24:25.395Z,12.28
2022-09-24T07:27:13.734Z,18.37
2022-09-24T07:30:01.247Z,16.77
2022-09-24T07:32:50.061Z,14.87
2022-09-24T07:35:41.097Z,17.07
2022-09-24T07:38:28.251Z,13.72
2022-09-24T07:41:15.919Z,15.40
2022-09-24T07:44:03.190Z,12.18
2022-09-24T07:46:51.150Z,10.85
2022-09-24T07:49:38.817Z,11.63
2022-09-24T07:52:26.166Z,13.20
2022-09-24T07:55:13.326Z,12.07
2022-09-24T07:58:00.806Z,12.45
2022-09-24T08:00:48.542Z,12.60
2022-09-24T08:03:35.616Z,10.00
2022-09-24T08:06:23.126Z,12.15
2022-09-24T08:09:11.605Z,11.68
2022-09-24T08:11:59.666Z,11.85
2022-09-24T08:14:47.119Z,11.78
2022-09-24T08:17:34.515Z,12.07
2022-09-24T08:20:23.003Z,14.13
2022-09-24T08:23:10.690Z,13.05
2022-09-24T08:25:58.030Z,11.25
2022-09-24T08:28:45.507Z,10.78
2022-09-24T08:31:35.279Z,15.35
2022-09-24T08:34:22.770Z,9.68
2022-09-24T08:37:10.018Z,10.03
2022-09-24T08:39:57.438Z,14.45
2022-09-24T08:42:53.650Z,14.78
2022-09-24T08:46:10.571Z,17.77
2022-09-24T08:48:59.678Z,14.63
2022-09-24T08:52:02.070Z,14.35
2022-09-24T08:54:52.025Z,13.75
2022-09-24T08:57:42.299Z,13.53
2022-09-24T09:00:32.664Z,15.58
2022-09-24T09:03:37.356Z,12.90
2022-09-24T09:06:43.429Z,14.75
2022-09-24T09:09:33.608Z,13.20
2022-09-24T09:12:23.798Z,15.78
2022-09-24T09:15:20.909Z,19.02
2022-09-24T09:18:27.227Z,14.53
2022-09-24T09:21:21.210Z,13.13
2022-09-24T09:24:17.510Z,9.63
2022-09-24T09:27:08.788Z,12.85
2022-09-24T09:30:01.506Z,14.90
2022-09-24T09:33:10.102Z,13.30
2022-09-24T09:36:15.782Z,13.85
2022-09-24T09:39:06.168Z,14.10
2022-09-24T09:42:11.452Z,10.78
2022-09-24T09:45:01.425Z,12.20
2022-09-24T09:47:57.754Z,11.60
2022-09-24T09:50:51.356Z,10.20
2022-09-24T09:53:39.932Z,9.30
2022-09-24T09:56:30.758Z,10.08
2022-09-24T09:59:24.470Z,13.78
2022-09-24T10:02:28.529Z,11.63
2022-09-24T10:05:27.499Z,10.93
2022-09-24T10:08:25.274Z,10.48
2022-09-24T10:11:15.615Z,9.60
2022-09-24T10:14:07.056Z,9.03
2022-09-24T10:16:58.002Z,11.57
2022-09-24T10:19:50.690Z,9.40
2022-09-24T10:22:41.444Z,12.37
2022-09-24T10:25:30.648Z,9.88
2022-09-24T10:28:38.978Z,12.78
2022-09-24T10:31:29.038Z,14.23
2022-09-24T10:34:24.782Z,9.18
2022-09-24T10:37:18.417Z,10.82
2022-09-24T10:40:15.367Z,9.45
2022-09-24T10:43:04.698Z,11.18
2022-09-24T10:46:10.093Z,11.40
2022-09-24T10:49:22.947Z,10.72
2022-09-24T10:52:17.923Z,11.22
2022-09-24T10:55:26.782Z,12.03
2022-09-24T10:58:24.140Z,12.88
2022-09-24T11:01:20.613Z,12.43
2022-09-24T11:04:12.296Z,9.58
2022-09-24T11:07:20.518Z,10.48
2022-09-24T11:10:16.758Z,10.72
2022-09-24T11:13:23.240Z,10.00
2022-09-24T11:16:35.068Z,12.47
2022-09-24T11:19:42.003Z,9.50
2022-09-24T11:22:35.298Z,13.45
2022-09-24T11:25:48.525Z,9.15
2022-09-24T11:28:45.440Z,9.30
2022-09-24T11:31:54.154Z,11.85
2022-09-24T11:34:44.630Z,7.97
2022-09-24T11:37:43.619Z,9.03
2022-09-24T11:40:39.802Z,9.40
2022-09-24T11:44:02.136Z,8.53
2022-09-24T11:47:01.038Z,8.95
2022-09-24T11:50:00.572Z,7.58
2022-09-24T11:52:50.873Z,12.58
2022-09-24T11:55:44.307Z,9.10
2022-09-24T11:58:49.689Z,13.48
2022-09-24T12:01:40.363Z,10.10
2022-09-24T12:04:30.923Z,11.45
2022-09-24T12:07:22.939Z,12.60
2022-09-24T12:10:36.139Z,9.60
2022-09-24T12:13:38.969Z,10.88
2022-09-24T12:16:29.378Z,9.15
2022-09-24T12:19:19.547Z,9.88
2022-09-24T12:22:08.740Z,9.08
2022-09-24T12:25:03.505Z,9.70
2022-09-24T12:27:50.839Z,9.00
2022-09-24T12:31:01.809Z,11.53
2022-09-24T12:33:55.087Z,9.55
2022-09-24T12:37:03.532Z,10.58
2022-09-24T12:40:05.790Z,9.45
2022-09-24T12:42:56.339Z,9.43
2022-09-24T12:45:44.064Z,8.98
2022-09-24T12:48:35.769Z,8.15
2022-09-24T12:51:24.084Z,7.28
2022-09-24T12:54:34.738Z,9.48
2022-09-24T12:57:26.272Z,8.43
2022-09-24T13:00:42.894Z,8.70
2022-09-24T13:03:46.671Z,10.05
2022-09-24T13:06:38.608Z,9.63
2022-09-24T13:09:35.544Z,11.33
2022-09-24T13:15:34.197Z,7.85
2022-09-24T13:18:26.212Z,11.30
2022-09-24T13:21:20.052Z,9.05
2022-09-24T13:24:15.484Z,8.68
2022-09-24T13:27:22.517Z,16.70
2022-09-24T13:33:04.597Z,12.37
2022-09-24T13:36:11.583Z,11.12
2022-09-24T13:39:04.581Z,6.95
2022-09-24T13:42:10.157Z,9.28
2022-09-24T13:44:59.755Z,7.25
2022-09-24T13:47:56.566Z,8.48
2022-09-24T13:50:49.579Z,8.85
2022-09-24T13:53:41.129Z,8.83
2022-09-24T13:56:28.548Z,11.97
2022-09-24T13:59:16.443Z,6.15
2022-09-24T14:02:04.074Z,7.47
2022-09-24T14:04:58.161Z,5.70
2022-09-24T14:07:54.460Z,5.40
2022-09-24T14:10:42.398Z,4.78
2022-09-24T14:13:29.876Z,4.90
2022-09-24T14:16:19.861Z,10.58
2022-09-24T14:19:07.473Z,5.33
2022-09-24T14:21:57.728Z,8.18
2022-09-24T14:24:57.087Z,6.08
2022-09-24T14:27:47.741Z,4.90
2022-09-24T14:30:38.287Z,5.53
2022-09-24T14:33:29.237Z,6.22
2022-09-24T14:36:17.349Z,4.83
2022-09-24T14:39:06.591Z,3.50
2022-09-24T14:41:55.651Z,7.58
2022-09-24T14:44:45.828Z,6.33
2022-09-24T14:47:35.735Z,5.37
2022-09-24T14:50:40.792Z,5.28
2022-09-24T14:53:38.147Z,5.78
2022-09-24T14:56:31.187Z,2.37
2022-09-24T14:59:27.591Z,5.42
2022-09-24T15:02:32.918Z,5.55
2022-09-24T15:05:23.229Z,2.60
2022-09-24T15:08:27.983Z,5.08
2022-09-24T15:11:18.611Z,6.80
2022-09-24T15:14:19.318Z,3.98
2022-09-24T15:17:21.692Z,4.30
2022-09-24T15:20:11.780Z,3.70
2022-09-24T15:22:59.454Z,5.85
2022-09-24T15:25:46.830Z,5.83
2022-09-24T15:28:34.325Z,3.25
2022-09-24T15:31:23.055Z,3.65
2022-09-24T15:34:10.648Z,4.78
2022-09-24T15:37:00.321Z,4.75
2022-09-24T15:39:51.029Z,3.75
2022-09-24T15:42:38.612Z,5.08
2022-09-24T15:45:26.771Z,5.55
2022-09-24T15:48:13.933Z,5.12
2022-09-24T15:51:08.989Z,6.40
2022-09-24T15:53:52.309Z,6.35
2022-09-24T15:56:44.221Z,7.87
2022-09-24T15:59:30.473Z,7.67
2022-09-24T16:02:30.111Z,8.13
2022-09-24T16:05:17.288Z,10.32
2022-09-24T16:08:04.573Z,7.60
2022-09-24T16:10:52.937Z,7.28
2022-09-24T16:13:40.392Z,6.90
2022-09-24T16:16:27.648Z,9.88
2022-09-24T16:19:14.862Z,4.92
2022-09-24T16:22:02.143Z,9.65
2022-09-24T16:24:49.866Z,9.13
2022-09-24T16:27:37.835Z,5.37
2022-09-24T16:30:25.811Z,6.97
2022-09-24T16:33:13.388Z,5.78
2022-09-24T16:36:05.874Z,7.42
2022-09-24T16:38:53.063Z,8.40
2022-09-24T16:41:40.613Z,6.75
2022-09-24T16:44:28.251Z,8.05
2022-09-24T16:47:17.255Z,5.83
2022-09-24T16:50:05.200Z,9.63
2022-09-24T16:52:54.081Z,4.97
2022-09-24T16:55:41.511Z,9.28
2022-09-24T16:58:28.845Z,6.92
2022-09-24T17:01:20.371Z,9.98
2022-09-24T17:04:07.843Z,7.95
2022-09-24T17:06:57.607Z,6.97
2022-09-24T17:10:03.281Z,6.60
2022-09-24T17:12:52.151Z,5.10
2022-09-24T17:15:39.398Z,8.75
2022-09-24T17:18:27.446Z,11.97
2022-09-24T17:21:16.750Z,7.83
2022-09-24T17:24:04.622Z,6.42
2022-09-24T17:26:55.047Z,6.17
2022-09-24T17:29:42.880Z,9.30
2022-09-24T17:32:30.240Z,5.08
2022-09-24T17:35:20.245Z,7.85
2022-09-24T17:38:07.501Z,5.55
2022-09-24T17:40:57.198Z,5.83
2022-09-24T17:43:44.825Z,9.53
2022-09-24T17:46:34.830Z,5.45
2022-09-24T17:49:21.927Z,6.95
2022-09-24T17:52:09.127Z,9.98
2022-09-24T17:54:56.117Z,5.40
2022-09-24T17:57:43.617Z,6.80
2022-09-24T18:00:31.073Z,7.35
2022-09-24T18:03:18.500Z,7.80
2022-09-24T18:06:08.817Z,7.40
2022-09-24T18:08:56.867Z,9.80
2022-09-24T18:11:47.246Z,7.53
2022-09-24T18:14:34.948Z,8.55
2022-09-24T18:17:25.177Z,6.20
2022-09-24T18:20:12.718Z,6.28
2022-09-24T18:22:59.908Z,11.95
2022-09-24T18:25:48.073Z,10.55
2022-09-24T18:28:35.525Z,10.80
2022-09-24T18:31:25.541Z,12.15
2022-09-24T18:34:16.628Z,9.15
2022-09-24T18:37:04.977Z,8.43
2022-09-24T18:39:52.521Z,10.95
2022-09-24T18:42:39.504Z,7.35
2022-09-24T18:45:26.900Z,6.25
2022-09-24T18:48:14.013Z,7.65
2022-09-24T18:51:01.862Z,7.35
2022-09-24T18:53:53.709Z,14.78
2022-09-24T18:56:43.338Z,12.82
2022-09-24T18:59:32.305Z,9.38
2022-09-24T19:02:21.593Z,8.08
2022-09-24T19:05:09.748Z,10.72
2022-09-24T19:07:57.614Z,11.22
2022-09-24T19:10:45.205Z,8.68
2022-09-24T19:13:32.726Z,9.68
2022-09-24T19:16:24.075Z,13.10
2022-09-24T19:19:12.267Z,17.98
2022-09-24T19:21:59.690Z,15.83
2022-09-24T19:24:47.596Z,7.90
2022-09-24T19:27:34.937Z,9.90
2022-09-24T19:30:22.632Z,9.00
2022-09-24T19:33:15.948Z,9.25
2022-09-24T19:36:04.591Z,9.83
2022-09-24T19:38:53.298Z,12.70
2022-09-24T19:41:40.759Z,10.35
2022-09-24T19:44:28.171Z,10.35
2022-09-24T19:47:15.681Z,6.22
2022-09-24T19:50:02.737Z,7.72
2022-09-24T19:52:51.003Z,7.65
2022-09-24T19:55:38.677Z,6.85
2022-09-24T19:58:26.635Z,7.17
2022-09-24T20:01:17.346Z,9.65
2022-09-24T20:04:06.569Z,8.63
2022-09-24T20:06:54.872Z,8.65
2022-09-24T20:09:42.578Z,9.05
2022-09-24T20:12:29.956Z,12.03
2022-09-24T20:15:17.657Z,16.10
2022-09-24T20:18:05.619Z,8.95
2022-09-24T20:20:56.488Z,10.03
2022-09-24T20:23:44.224Z,10.32
2022-09-24T20:26:49.672Z,8.95
2022-09-24T20:29:37.317Z,8.55
2022-09-24T20:32:24.889Z,8.78
2022-09-24T20:35:12.720Z,7.55
2022-09-24T20:37:59.952Z,7.22
2022-09-24T20:40:47.557Z,7.45
2022-09-24T20:43:34.735Z,5.65
2022-09-24T20:46:24.861Z,7.03
2022-09-24T20:49:23.389Z,6.37
2022-09-24T20:52:10.749Z,5.40
2022-09-24T20:54:58.280Z,6.33
2022-09-24T20:57:46.076Z,5.10
2022-09-24T21:00:35.901Z,5.62
2022-09-24T21:03:42.681Z,6.97
2022-09-24T21:06:14.967Z,7.62
2022-09-24T21:09:02.259Z,8.30
2022-09-24T21:11:50.283Z,7.12
2022-09-24T21:14:37.547Z,6.37
2022-09-24T21:17:27.000Z,7.58
2022-09-24T21:20:14.242Z,5.87
2022-09-24T21:23:01.982Z,4.95
2022-09-24T21:25:54.545Z,8.23
2022-09-24T21:28:39.065Z,6.47
2022-09-24T21:31:29.600Z,8.80
2022-09-24T21:34:20.724Z,9.38
2022-09-24T21:37:09.162Z,7.28
2022-09-24T21:39:56.274Z,9.15
2022-09-24T21:42:43.948Z,7.97
2022-09-24T21:45:32.367Z,7.60
2022-09-24T21:48:20.454Z,9.70
2022-09-24T21:51:10.413Z,8.55
2022-09-24T21:54:02.198Z,6.10
2022-09-24T21:56:49.425Z,6.95
2022-09-24T21:59:54.161Z,6.37
2022-09-24T22:02:43.598Z,7.97
2022-09-24T22:05:32.199Z,8.60
2022-09-24T22:08:21.217Z,8.03
2022-09-24T22:11:12.507Z,8.18
2022-09-24T22:14:01.469Z,6.05
2022-09-24T22:16:48.838Z,7.10
2022-09-24T22:19:36.153Z,6.90
2022-09-24T22:22:23.488Z,7.22
2022-09-24T22:25:10.862Z,7.28
2022-09-24T22:27:58.132Z,8.73
2022-09-24T22:30:46.100Z,6.80
2022-09-24T22:33:51.738Z,10.10
2022-09-24T22:36:39.198Z,9.08
2022-09-24T22:39:27.016Z,10.05
2022-09-24T22:42:14.577Z,7.10
2022-09-24T22:45:01.859Z,9.28
2022-09-24T22:47:49.331Z,7.75
2022-09-24T22:50:36.844Z,8.15
2022-09-24T22:53:24.051Z,9.30
2022-09-24T22:56:14.152Z,8.88
2022-09-24T22:59:02.240Z,8.48
2022-09-24T23:01:49.939Z,7.10
2022-09-24T23:04:38.182Z,8.00
2022-09-24T23:07:25.697Z,7.95
2022-09-24T23:10:13.654Z,8.40
2022-09-24T23:13:01.220Z,8.45
2022-09-24T23:15:48.676Z,11.12
2022-09-24T23:18:36.253Z,11.83
2022-09-24T23:21:25.684Z,9.28
2022-09-24T23:24:21.883Z,6.30
2022-09-24T23:27:10.369Z,7.70
2022-09-24T23:29:57.901Z,7.42
2022-09-24T23:32:45.105Z,9.65
2022-09-24T23:35:32.249Z,7.40
2022-09-24T23:38:19.523Z,8.03
2022-09-24T23:41:08.154Z,8.78
2022-09-24T23:43:55.504Z,7.40
2022-09-24T23:46:42.753Z,8.30
2022-09-24T23:49:29.996Z,7.03
2022-09-24T23:52:17.089Z,8.80
2022-09-24T23:55:04.780Z,9.75
2022-09-24T23:57:52.162Z,9.40
